createdAt,value
2023-04-18T00:01:38.350Z,102320.66
2023-04-18T00:04:03.199Z,102324.47
2023-04-18T00:06:27.001Z,102323.00
2023-04-18T00:08:51.044Z,102329.84
2023-04-18T00:11:16.018Z,102330.56
2023-04-18T00:13:39.657Z,102329.25
2023-04-18T00:16:03.697Z,102331.66
2023-04-18T00:18:27.922Z,102327.44
2023-04-18T00:20:51.474Z,102326.16
2023-04-18T00:23:15.230Z,102337.41
2023-04-18T00:25:38.772Z,102326.84
2023-04-18T00:28:04.230Z,102328.25
2023-04-18T00:30:28.254Z,102330.44
2023-04-18T00:32:53.165Z,102335.63
2023-04-18T00:35:16.749Z,102335.38
2023-04-18T00:37:43.118Z,102333.03
2023-04-18T00:40:08.235Z,102344.06
2023-04-18T00:42:31.927Z,102335.84
2023-04-18T00:44:56.987Z,102333.69
2023-04-18T00:47:20.776Z,102337.34
2023-04-18T00:49:44.754Z,102336.97
2023-04-18T00:52:08.542Z,102343.25
2023-04-18T00:54:32.166Z,102337.97
2023-04-18T00:56:56.148Z,102337.41
2023-04-18T00:59:19.907Z,102342.72
2023-04-18T01:01:45.324Z,102338.56
2023-04-18T01:04:10.024Z,102337.47
2023-04-18T01:06:34.083Z,102344.97
2023-04-18T01:08:58.632Z,102343.38
2023-04-18T01:11:22.356Z,102336.13
2023-04-18T01:14:01.085Z,102335.31
2023-04-18T01:16:24.876Z,102338.72
2023-04-18T01:18:50.333Z,102337.81
2023-04-18T01:21:14.732Z,102340.25
2023-04-18T01:23:38.532Z,102341.78
2023-04-18T01:26:03.956Z,102343.44
2023-04-18T01:28:27.823Z,102345.22
2023-04-18T01:30:52.814Z,102342.81
2023-04-18T01:33:16.463Z,102336.84
2023-04-18T01:35:42.546Z,102341.97
2023-04-18T01:38:06.213Z,102337.09
2023-04-18T01:40:31.391Z,102342.19
2023-04-18T01:42:56.470Z,102344.53
2023-04-18T01:45:22.340Z,102343.50
2023-04-18T01:47:46.192Z,102336.13
2023-04-18T01:50:11.184Z,102338.88
2023-04-18T01:52:34.759Z,102342.28
2023-04-18T01:54:58.435Z,102339.78
2023-04-18T01:57:22.406Z,102334.47
2023-04-18T01:59:48.063Z,102338.69
2023-04-18T02:02:12.005Z,102337.94
2023-04-18T02:04:35.822Z,102333.88
2023-04-18T02:06:59.364Z,102337.81
2023-04-18T02:09:23.002Z,102334.09
2023-04-18T02:11:46.597Z,102332.94
2023-04-18T02:14:10.472Z,102334.78
2023-04-18T02:16:35.779Z,102333.88
2023-04-18T02:19:00.248Z,102335.47
2023-04-18T02:21:24.405Z,102332.72
2023-04-18T02:23:48.850Z,102334.56
2023-04-18T02:26:12.424Z,102329.28
2023-04-18T02:28:38.962Z,102334.72
2023-04-18T02:31:02.539Z,102333.56
2023-04-18T02:33:27.692Z,102338.53
2023-04-18T02:35:51.215Z,102341.88
2023-04-18T02:38:14.961Z,102331.53
2023-04-18T02:40:38.823Z,102325.41
2023-04-18T02:43:02.669Z,102337.59
2023-04-18T02:45:26.289Z,102337.94
2023-04-18T02:47:55.395Z,102338.97
2023-04-18T02:50:21.299Z,102342.69
2023-04-18T02:52:45.006Z,102343.84
2023-04-18T02:55:09.465Z,102339.03
2023-04-18T02:57:36.833Z,102341.19
2023-04-18T03:00:20.966Z,102345.38
2023-04-18T03:03:10.550Z,102337.47
2023-04-18T03:05:40.294Z,102338.84
2023-04-18T03:08:04.078Z,102349.47
2023-04-18T03:10:28.005Z,102341.22
2023-04-18T03:12:52.449Z,102340.59
2023-04-18T03:15:16.761Z,102338.16
2023-04-18T03:17:41.146Z,102347.88
2023-04-18T03:20:05.222Z,102345.94
2023-04-18T03:22:30.266Z,102354.75
2023-04-18T03:24:55.605Z,102347.97
2023-04-18T03:27:28.073Z,102352.72
2023-04-18T03:29:51.696Z,102356.28
2023-04-18T03:32:15.319Z,102354.53
2023-04-18T03:34:38.920Z,102361.72
2023-04-18T03:37:04.702Z,102356.44
2023-04-18T03:39:34.828Z,102357.66
2023-04-18T03:41:58.606Z,102357.97
2023-04-18T03:44:22.263Z,102355.69
2023-04-18T03:46:46.315Z,102349.31
2023-04-18T03:49:10.033Z,102355.22
2023-04-18T03:51:43.248Z,102361.38
2023-04-18T03:54:07.599Z,102360.91
2023-04-18T03:56:32.710Z,102360.88
2023-04-18T03:58:56.332Z,102362.47
2023-04-18T04:01:20.147Z,102372.63
2023-04-18T04:03:43.971Z,102370.56
2023-04-18T04:06:08.346Z,102373.56
2023-04-18T04:08:31.977Z,102368.47
2023-04-18T04:10:55.570Z,102370.47
2023-04-18T04:13:21.245Z,102364.31
2023-04-18T04:15:45.833Z,102370.06
2023-04-18T04:18:09.874Z,102375.63
2023-04-18T04:20:36.439Z,102376.84
2023-04-18T04:23:07.457Z,102374.59
2023-04-18T04:25:33.393Z,102382.72
2023-04-18T04:28:01.552Z,102377.94
2023-04-18T04:30:28.711Z,102378.97
2023-04-18T04:32:52.287Z,102380.22
2023-04-18T04:35:16.342Z,102385.78
2023-04-18T04:37:41.268Z,102387.72
2023-04-18T04:40:17.564Z,102384.94
2023-04-18T04:42:45.984Z,102387.34
2023-04-18T04:45:17.431Z,102381.78
2023-04-18T04:47:43.713Z,102382.66
2023-04-18T04:50:14.757Z,102395.72
2023-04-18T04:52:40.196Z,102393.22
2023-04-18T04:55:03.825Z,102393.44
2023-04-18T04:57:27.562Z,102393.22
2023-04-18T04:59:51.097Z,102391.78
2023-04-18T05:02:14.874Z,102399.09
2023-04-18T05:04:40.047Z,102394.28
2023-04-18T05:07:03.775Z,102392.09
2023-04-18T05:09:27.384Z,102393.97
2023-04-18T05:11:51.034Z,102398.97
2023-04-18T05:14:14.843Z,102404.72
2023-04-18T05:16:38.705Z,102399.72
2023-04-18T05:19:02.421Z,102402.69
2023-04-18T05:21:28.732Z,102404.44
2023-04-18T05:23:52.244Z,102402.09
2023-04-18T05:26:15.933Z,102409.81
2023-04-18T05:28:39.527Z,102399.94
2023-04-18T05:31:03.135Z,102404.94
2023-04-18T05:33:26.768Z,102402.19
2023-04-18T05:35:50.367Z,102398.63
2023-04-18T05:38:15.286Z,102399.84
2023-04-18T05:40:38.955Z,102398.66
2023-04-18T05:43:02.731Z,102397.94
2023-04-18T05:45:26.390Z,102400.91
2023-04-18T05:47:50.077Z,102404.03
2023-04-18T05:50:13.789Z,102403.22
2023-04-18T05:52:39.068Z,102402.78
2023-04-18T05:55:04.156Z,102401.06
2023-04-18T05:57:27.653Z,102407.63
2023-04-18T05:59:51.247Z,102413.09
2023-04-18T06:02:14.990Z,102408.22
2023-04-18T06:04:38.859Z,102409.88
2023-04-18T06:07:02.457Z,102412.19
2023-04-18T06:09:26.092Z,102404.19
2023-04-18T06:11:51.855Z,102408.47
2023-04-18T06:14:15.962Z,102417.56
2023-04-18T06:16:39.910Z,102408.16
2023-04-18T06:19:03.618Z,102413.91
2023-04-18T06:21:27.171Z,102406.97
2023-04-18T06:23:50.801Z,102413.41
2023-04-18T06:26:14.550Z,102408.19
2023-04-18T06:28:39.516Z,102415.09
2023-04-18T06:31:03.118Z,102418.66
2023-04-18T06:33:26.920Z,102414.09
2023-04-18T06:35:50.762Z,102420.63
2023-04-18T06:38:14.511Z,102419.50
2023-04-18T06:40:38.132Z,102413.22
2023-04-18T06:43:02.023Z,102419.22
2023-04-18T06:45:27.169Z,102422.06
2023-04-18T07:00:01.219Z,102428.34
2023-04-18T07:02:25.023Z,102424.88
2023-04-18T07:04:48.677Z,102418.88
2023-04-18T07:07:12.418Z,102415.63
2023-04-18T07:09:36.156Z,102425.09
2023-04-18T07:11:59.829Z,102426.22
2023-04-18T07:14:25.709Z,102423.22
2023-04-18T07:16:50.933Z,102422.16
2023-04-18T07:19:14.691Z,102427.84
2023-04-18T07:21:40.586Z,102423.19
2023-04-18T07:24:04.292Z,102425.13
2023-04-18T07:26:28.408Z,102426.91
2023-04-18T07:28:52.155Z,102429.97
2023-04-18T07:31:16.708Z,102426.03
2023-04-18T07:33:43.465Z,102426.69
2023-04-18T07:36:08.175Z,102417.41
2023-04-18T07:38:31.890Z,102416.09
2023-04-18T07:40:58.826Z,102423.75
2023-04-18T07:43:22.830Z,102420.53
2023-04-18T07:45:46.568Z,102420.72
2023-04-18T07:48:10.253Z,102416.88
2023-04-18T07:50:35.408Z,102425.72
2023-04-18T07:52:59.116Z,102422.00
2023-04-18T07:55:22.870Z,102422.72
2023-04-18T07:57:50.315Z,102424.19
2023-04-18T08:00:16.213Z,102424.16
2023-04-18T08:02:39.923Z,102427.75
2023-04-18T08:05:03.871Z,102424.25
2023-04-18T08:07:28.935Z,102428.00
2023-04-18T08:09:52.581Z,102435.63
2023-04-18T08:12:16.137Z,102434.72
2023-04-18T08:14:39.770Z,102441.41
2023-04-18T08:17:03.762Z,102431.97
2023-04-18T08:19:27.476Z,102424.81
2023-04-18T08:21:52.493Z,102433.44
2023-04-18T08:24:17.583Z,102432.47
2023-04-18T08:26:41.121Z,102435.03
2023-04-18T08:29:04.766Z,102431.28
2023-04-18T08:31:28.320Z,102434.25
2023-04-18T08:33:52.415Z,102428.34
2023-04-18T08:36:16.373Z,102429.75
2023-04-18T08:38:40.495Z,102422.78
2023-04-18T08:41:05.501Z,102426.81
2023-04-18T08:43:31.164Z,102428.81
2023-04-18T08:46:00.611Z,102431.84
2023-04-18T08:48:24.214Z,102436.00
2023-04-18T08:50:47.757Z,102438.03
2023-04-18T08:53:12.035Z,102440.94
2023-04-18T08:55:35.972Z,102441.31
2023-04-18T08:58:01.401Z,102452.03
2023-04-18T09:00:25.290Z,102441.06
2023-04-18T09:02:49.636Z,102442.38
2023-04-18T09:05:16.575Z,102450.56
2023-04-18T09:07:40.665Z,102444.00
2023-04-18T09:10:04.302Z,102449.66
2023-04-18T09:12:29.660Z,102448.03
2023-04-18T09:14:57.921Z,102444.44
2023-04-18T09:17:34.518Z,102437.28
2023-04-18T09:19:58.964Z,102437.66
2023-04-18T09:22:22.921Z,102435.69
2023-04-18T09:24:53.566Z,102435.97
2023-04-18T09:27:17.191Z,102432.72
2023-04-18T09:29:46.558Z,102433.53
2023-04-18T09:32:11.493Z,102437.56
2023-04-18T09:34:38.358Z,102435.03
2023-04-18T09:37:10.222Z,102442.09
2023-04-18T09:39:33.933Z,102438.72
2023-04-18T09:42:00.701Z,102431.69
2023-04-18T09:44:24.337Z,102432.47
2023-04-18T09:46:49.449Z,102429.19
2023-04-18T09:49:14.975Z,102431.66
2023-04-18T09:51:41.575Z,102425.91
2023-04-18T09:54:06.634Z,102417.28
2023-04-18T09:56:33.417Z,102421.72
2023-04-18T09:59:02.452Z,102422.41
2023-04-18T10:01:29.606Z,102429.56
2023-04-18T10:03:55.138Z,102427.81
2023-04-18T10:06:20.329Z,102421.03
2023-04-18T10:08:44.838Z,102427.59
2023-04-18T10:11:08.393Z,102426.91
2023-04-18T10:13:33.535Z,102419.72
2023-04-18T10:15:57.626Z,102418.31
2023-04-18T10:18:25.029Z,102409.13
2023-04-18T10:20:48.703Z,102415.25
2023-04-18T10:23:39.630Z,102417.38
2023-04-18T10:26:04.091Z,102414.06
2023-04-18T10:28:28.279Z,102423.66
2023-04-18T10:31:07.486Z,102415.81
2023-04-18T10:33:34.482Z,102410.31
2023-04-18T10:36:17.349Z,102407.56
2023-04-18T10:38:47.920Z,102404.44
2023-04-18T10:41:17.288Z,102410.16
2023-04-18T10:44:15.842Z,102408.97
2023-04-18T10:46:41.822Z,102398.25
2023-04-18T10:49:16.789Z,102398.16
2023-04-18T10:51:40.743Z,102400.09
2023-04-18T10:54:09.879Z,102412.84
2023-04-18T10:56:33.563Z,102401.63
2023-04-18T10:59:03.619Z,102404.00
2023-04-18T11:01:31.702Z,102407.06
2023-04-18T11:03:57.173Z,102401.88
2023-04-18T11:06:20.899Z,102407.66
2023-04-18T11:08:45.297Z,102403.22
2023-04-18T11:11:11.384Z,102403.25
2023-04-18T11:13:36.892Z,102405.94
2023-04-18T11:16:00.714Z,102409.19
2023-04-18T11:18:24.363Z,102411.50
2023-04-18T11:20:50.287Z,102403.03
2023-04-18T11:23:20.572Z,102405.94
2023-04-18T11:25:45.274Z,102398.66
2023-04-18T11:28:13.487Z,102401.94
2023-04-18T11:30:41.936Z,102396.72
2023-04-18T11:33:08.697Z,102399.38
2023-04-18T11:35:32.717Z,102395.28
2023-04-18T11:37:56.417Z,102386.88
2023-04-18T11:40:20.070Z,102395.09
2023-04-18T11:42:44.005Z,102397.34
2023-04-18T11:45:13.614Z,102392.69
2023-04-18T11:47:37.188Z,102390.41
2023-04-18T11:50:02.419Z,102388.75
2023-04-18T11:52:28.696Z,102387.66
2023-04-18T11:54:52.655Z,102393.75
2023-04-18T11:57:25.123Z,102395.78
2023-04-18T11:59:54.134Z,102387.75
2023-04-18T12:02:19.239Z,102394.25
2023-04-18T12:04:53.436Z,102397.31
2023-04-18T12:07:33.064Z,102380.97
2023-04-18T12:09:56.726Z,102387.31
2023-04-18T12:12:20.994Z,102388.00
2023-04-18T12:14:44.862Z,102383.97
2023-04-18T12:17:08.474Z,102385.53
2023-04-18T12:19:34.291Z,102381.56
2023-04-18T12:22:01.437Z,102377.50
2023-04-18T12:24:25.271Z,102376.41
2023-04-18T12:26:50.018Z,102375.88
2023-04-18T12:29:13.939Z,102378.22
2023-04-18T12:31:37.669Z,102383.34
2023-04-18T12:34:01.347Z,102363.25
2023-04-18T12:36:28.435Z,102366.00
2023-04-18T12:38:52.099Z,102366.91
2023-04-18T12:41:15.619Z,102371.34
2023-04-18T12:43:39.246Z,102373.72
2023-04-18T12:46:02.821Z,102366.63
2023-04-18T12:48:26.517Z,102369.47
2023-04-18T12:50:50.062Z,102366.75
2023-04-18T12:53:15.067Z,102373.06
2023-04-18T12:55:38.770Z,102366.81
2023-04-18T12:58:02.726Z,102372.44
2023-04-18T13:00:29.260Z,102370.34
2023-04-18T13:02:53.501Z,102371.66
2023-04-18T13:05:20.039Z,102367.00
2023-04-18T13:07:44.484Z,102365.44
2023-04-18T13:10:11.980Z,102370.22
2023-04-18T13:12:35.675Z,102361.94
2023-04-18T13:14:59.458Z,102364.03
2023-04-18T13:17:23.208Z,102361.53
2023-04-18T13:19:46.859Z,102357.28
2023-04-18T13:22:10.534Z,102347.94
2023-04-18T13:24:34.089Z,102361.63
2023-04-18T13:26:59.113Z,102351.63
2023-04-18T13:29:22.657Z,102349.78
2023-04-18T13:31:46.683Z,102352.88
2023-04-18T13:34:10.266Z,102343.50
2023-04-18T13:36:35.010Z,102352.00
2023-04-18T13:38:59.221Z,102344.84
2023-04-18T13:41:24.233Z,102346.59
2023-04-18T13:43:49.148Z,102337.34
2023-04-18T13:46:13.754Z,102337.56
2023-04-18T13:48:37.366Z,102340.66
2023-04-18T13:51:01.367Z,102341.41
2023-04-18T13:53:24.943Z,102338.34
2023-04-18T13:55:48.595Z,102335.13
2023-04-18T13:58:12.181Z,102334.13
2023-04-18T14:00:37.172Z,102338.19
2023-04-18T14:03:00.841Z,102339.94
2023-04-18T14:05:24.598Z,102341.28
2023-04-18T14:07:48.895Z,102326.88
2023-04-18T14:10:12.994Z,102333.00
2023-04-18T14:12:36.730Z,102329.06
2023-04-18T14:15:00.909Z,102325.47
2023-04-18T14:17:26.191Z,102339.56
2023-04-18T14:19:51.405Z,102331.53
2023-04-18T14:22:15.165Z,102335.72
2023-04-18T14:24:38.848Z,102329.22
2023-04-18T14:27:02.872Z,102329.06
2023-04-18T14:29:26.742Z,102336.00
2023-04-18T14:31:50.391Z,102334.75
2023-04-18T14:34:15.664Z,102325.75
2023-04-18T14:36:39.344Z,102328.44
2023-04-18T14:39:03.714Z,102323.28
2023-04-18T14:41:27.337Z,102328.31
2023-04-18T14:43:50.931Z,102324.28
2023-04-18T14:46:16.344Z,102318.59
2023-04-18T14:48:40.167Z,102316.03
2023-04-18T14:51:05.802Z,102320.97
2023-04-18T14:53:29.852Z,102312.81
2023-04-18T14:55:53.780Z,102320.25
2023-04-18T14:58:17.421Z,102310.63
2023-04-18T15:00:40.925Z,102311.47
2023-04-18T15:03:05.620Z,102317.13
2023-04-18T15:05:29.907Z,102316.38
2023-04-18T15:07:56.196Z,102314.78
2023-04-18T15:10:22.300Z,102321.06
2023-04-18T15:12:46.800Z,102314.03
2023-04-18T15:15:11.510Z,102309.72
2023-04-18T15:17:35.073Z,102309.25
2023-04-18T15:20:00.234Z,102305.03
2023-04-18T15:22:23.829Z,102311.59
2023-04-18T15:24:48.794Z,102306.16
2023-04-18T15:27:12.990Z,102302.59
2023-04-18T15:29:36.817Z,102303.94
2023-04-18T15:32:01.513Z,102301.72
2023-04-18T15:34:25.536Z,102307.41
2023-04-18T15:36:49.833Z,102306.22
2023-04-18T15:39:13.350Z,102311.22
2023-04-18T15:41:39.207Z,102308.44
2023-04-18T15:44:02.802Z,102310.50
2023-04-18T15:46:26.554Z,102308.81
2023-04-18T15:48:50.184Z,102315.53
2023-04-18T15:51:13.726Z,102310.25
2023-04-18T15:53:37.269Z,102304.28
2023-04-18T15:56:01.830Z,102315.38
2023-04-18T15:58:30.003Z,102314.00
2023-04-18T16:00:54.203Z,102310.31
2023-04-18T16:03:18.094Z,102312.25
2023-04-18T16:05:41.856Z,102314.50
2023-04-18T16:08:05.748Z,102319.31
2023-04-18T16:10:29.496Z,102321.06
2023-04-18T16:12:53.672Z,102318.81
2023-04-18T16:15:18.660Z,102313.06
2023-04-18T16:17:42.321Z,102317.66
2023-04-18T16:20:08.771Z,102316.63
2023-04-18T16:22:32.424Z,102320.66
2023-04-18T16:24:56.151Z,102319.88
2023-04-18T16:27:19.786Z,102321.31
2023-04-18T16:29:44.507Z,102313.34
2023-04-18T16:32:09.540Z,102311.56
2023-04-18T16:34:34.035Z,102314.03
2023-04-18T16:36:57.707Z,102311.59
2023-04-18T16:39:22.022Z,102317.13
2023-04-18T16:41:46.077Z,102316.84
2023-04-18T16:44:11.137Z,102309.72
2023-04-18T16:46:34.900Z,102318.69
2023-04-18T16:49:01.560Z,102313.38
2023-04-18T16:51:25.139Z,102317.09
2023-04-18T16:53:49.262Z,102319.75
2023-04-18T16:56:12.814Z,102325.59
2023-04-18T16:58:36.460Z,102323.13
2023-04-18T17:00:59.978Z,102333.00
2023-04-18T17:03:23.648Z,102336.00
2023-04-18T17:05:48.700Z,102323.91
2023-04-18T17:08:12.314Z,102330.28
2023-04-18T17:10:36.102Z,102330.16
2023-04-18T17:13:00.912Z,102324.75
2023-04-18T17:15:24.621Z,102334.41
2023-04-18T17:17:48.398Z,102337.63
2023-04-18T17:20:12.653Z,102337.63
2023-04-18T17:22:38.038Z,102337.50
2023-04-18T17:25:01.790Z,102347.53
2023-04-18T17:27:25.404Z,102340.16
2023-04-18T17:29:48.947Z,102341.00
2023-04-18T17:32:12.557Z,102343.44
2023-04-18T17:34:36.105Z,102351.38
2023-04-18T17:36:59.816Z,102347.53
2023-04-18T17:39:24.836Z,102363.63
2023-04-18T17:41:48.519Z,102358.44
2023-04-18T17:44:12.126Z,102365.16
2023-04-18T17:46:36.047Z,102351.44
2023-04-18T17:48:59.683Z,102362.97
2023-04-18T17:51:23.674Z,102356.13
2023-04-18T17:53:47.655Z,102361.53
2023-04-18T17:56:14.550Z,102363.47
2023-04-18T17:58:38.449Z,102371.00
2023-04-18T18:01:02.127Z,102372.31
2023-04-18T18:03:25.897Z,102371.44
2023-04-18T18:05:51.598Z,102374.53
2023-04-18T18:08:15.495Z,102374.94
2023-04-18T18:10:39.238Z,102381.56
2023-04-18T18:13:04.458Z,102377.41
2023-04-18T18:15:28.537Z,102387.63
2023-04-18T18:17:52.741Z,102385.78
2023-04-18T18:20:16.397Z,102379.16
2023-04-18T18:22:40.649Z,102392.72
2023-04-18T18:25:05.187Z,102391.66
2023-04-18T18:27:28.877Z,102387.63
2023-04-18T18:29:54.216Z,102395.88
2023-04-18T18:32:17.920Z,102391.72
2023-04-18T18:34:41.674Z,102402.13
2023-04-18T18:37:05.428Z,102398.78
2023-04-18T18:39:29.037Z,102407.00
2023-04-18T18:41:52.612Z,102392.44
2023-04-18T18:44:16.313Z,102407.25
2023-04-18T18:46:42.971Z,102407.50
2023-04-18T18:49:08.108Z,102406.97
2023-04-18T18:51:31.806Z,102412.13
2023-04-18T18:53:56.811Z,102407.28
2023-04-18T18:56:20.399Z,102407.94
2023-04-18T18:58:44.399Z,102409.97
2023-04-18T19:01:08.421Z,102410.81
2023-04-18T19:03:34.772Z,102418.44
2023-04-18T19:05:58.551Z,102413.78
2023-04-18T19:08:22.250Z,102420.44
2023-04-18T19:10:46.005Z,102420.56
2023-04-18T19:13:09.787Z,102412.13
2023-04-18T19:15:33.370Z,102421.91
2023-04-18T19:17:57.260Z,102418.44
2023-04-18T19:20:24.082Z,102428.34
2023-04-18T19:22:47.785Z,102423.59
2023-04-18T19:25:11.780Z,102430.31
2023-04-18T19:27:35.960Z,102423.84
2023-04-18T19:29:59.521Z,102423.28
2023-04-18T19:32:23.282Z,102422.78
2023-04-18T19:34:46.933Z,102429.59
2023-04-18T19:37:12.063Z,102427.72
2023-04-18T19:39:35.737Z,102427.09
2023-04-18T19:41:59.458Z,102424.34
2023-04-18T19:44:23.080Z,102422.53
2023-04-18T19:46:46.812Z,102417.25
2023-04-18T19:49:10.472Z,102423.09
2023-04-18T19:51:34.331Z,102428.94
2023-04-18T19:53:59.762Z,102425.16
2023-04-18T19:56:23.597Z,102422.13
2023-04-18T19:58:47.686Z,102419.66
2023-04-18T20:01:11.996Z,102425.56
2023-04-18T20:03:35.750Z,102422.03
2023-04-18T20:05:59.570Z,102418.31
2023-04-18T20:08:23.178Z,102415.31
2023-04-18T20:10:49.078Z,102411.66
2023-04-18T20:13:12.664Z,102414.13
2023-04-18T20:15:36.671Z,102419.16
2023-04-18T20:18:00.507Z,102417.78
2023-04-18T20:20:24.466Z,102411.81
2023-04-18T20:22:48.082Z,102416.13
2023-04-18T20:25:11.730Z,102416.72
2023-04-18T20:27:36.885Z,102416.94
2023-04-18T20:30:00.584Z,102414.06
2023-04-18T20:32:24.280Z,102420.19
2023-04-18T20:34:48.137Z,102412.63
2023-04-18T20:37:11.736Z,102417.00
2023-04-18T20:39:35.504Z,102404.28
2023-04-18T20:41:59.971Z,102413.66
2023-04-18T20:44:25.090Z,102414.38
2023-04-18T20:46:48.872Z,102408.44
2023-04-18T20:49:13.082Z,102409.69
2023-04-18T20:51:38.008Z,102411.28
2023-04-18T20:54:01.764Z,102414.53
2023-04-18T20:56:25.545Z,102417.88
2023-04-18T20:58:49.178Z,102427.78
2023-04-18T21:01:14.230Z,102416.84
2023-04-18T21:03:38.041Z,102420.97
2023-04-18T21:06:02.165Z,102417.72
2023-04-18T21:08:25.988Z,102423.50
2023-04-18T21:10:49.545Z,102418.25
2023-04-18T21:13:13.228Z,102426.97
2023-04-18T21:15:38.151Z,102434.81
2023-04-18T21:18:03.414Z,102424.59
2023-04-18T21:20:27.315Z,102431.41
2023-04-18T21:22:50.990Z,102433.84
2023-04-18T21:25:15.356Z,102431.03
2023-04-18T21:27:38.993Z,102431.63
2023-04-18T21:30:04.825Z,102430.50
2023-04-18T21:32:28.919Z,102431.31
2023-04-18T21:34:55.763Z,102422.66
2023-04-18T21:37:19.444Z,102432.38
2023-04-18T21:39:43.390Z,102429.69
2023-04-18T21:42:07.150Z,102430.56
2023-04-18T21:44:31.169Z,102434.25
2023-04-18T21:46:54.887Z,102434.44
2023-04-18T21:49:18.410Z,102431.75
2023-04-18T21:51:43.426Z,102429.50
2023-04-18T21:54:08.468Z,102433.31
2023-04-18T21:56:32.087Z,102428.59
2023-04-18T21:58:55.730Z,102426.66
2023-04-18T22:01:19.592Z,102432.50
2023-04-18T22:03:43.410Z,102430.88
2023-04-18T22:06:07.625Z,102415.75
2023-04-18T22:08:32.684Z,102415.31
2023-04-18T22:10:58.265Z,102416.91
2023-04-18T22:13:22.011Z,102408.00
2023-04-18T22:15:46.214Z,102411.56
2023-04-18T22:18:14.127Z,102411.59
2023-04-18T22:20:38.964Z,102411.34
2023-04-18T22:23:03.105Z,102405.34
2023-04-18T22:25:28.118Z,102401.34
2023-04-18T22:27:51.667Z,102401.81
2023-04-18T22:30:16.249Z,102397.53
2023-04-18T22:32:40.173Z,102398.94
2023-04-18T22:35:04.080Z,102395.94
2023-04-18T22:37:27.683Z,102396.09
2023-04-18T22:39:51.346Z,102395.34
2023-04-18T22:42:16.303Z,102388.00
2023-04-18T22:44:39.912Z,102386.41
2023-04-18T22:47:03.549Z,102389.75
2023-04-18T22:49:27.656Z,102384.16
2023-04-18T22:51:54.559Z,102385.09
2023-04-18T22:54:18.257Z,102378.41
2023-04-18T22:56:41.812Z,102384.56
2023-04-18T22:59:06.814Z,102376.88
2023-04-18T23:01:30.384Z,102374.97
2023-04-18T23:03:54.302Z,102377.28
2023-04-18T23:06:18.147Z,102372.72
2023-04-18T23:08:41.786Z,102378.03
2023-04-18T23:11:05.362Z,102373.66
2023-04-18T23:13:28.966Z,102368.31
2023-04-18T23:15:53.920Z,102370.13
2023-04-18T23:18:17.591Z,102370.09
2023-04-18T23:20:41.116Z,102375.00
2023-04-18T23:23:04.739Z,102378.13
2023-04-18T23:25:28.423Z,102372.97
2023-04-18T23:27:52.034Z,102373.38
2023-04-18T23:30:15.987Z,102372.69
2023-04-18T23:32:41.151Z,102377.56
2023-04-18T23:35:06.033Z,102378.88
2023-04-18T23:37:29.663Z,102380.53
2023-04-18T23:39:53.197Z,102373.59
2023-04-18T23:42:17.102Z,102374.88
2023-04-18T23:44:40.721Z,102360.63
2023-04-18T23:47:04.500Z,102378.41
2023-04-18T23:49:29.484Z,102372.00
2023-04-18T23:51:53.031Z,102373.44
2023-04-18T23:54:16.803Z,102365.16
2023-04-18T23:56:40.646Z,102365.63
2023-04-18T23:59:04.355Z,102358.97
